Scott Bar, California
Current Conditions -  °F | °C
As of 11:09 PM on Sunday 23 Nov 2014 (Local Time) from KSIY Reporting Station
Haze Haze  
Wind Chill: -2°   Ceiling: 200
Heat Index: -2°   Visibility: 1.7mi
Dew Point: -2°   Wind: 0mph
Humidity: 96%   Direction: NA
Pressure: 30.41"   Gusts: NA
Location:  41.74°N, 123°W
Report Text: KSIY 240709Z AUTO 00000KT 1 3/4SM BR BKN002 M02/M02 A3041 RMK AO2 T10171022
Loading
Personal Weather Stations






























Interactive Weather Map New forecast layout! Learn more

10-Day Weather Forecast

Advertisements
Track Severe Weather on mobile